Time;durP1;ratioP1;P1;durP2;ratioP2;P2;SDS_P1;SDS_P2;PMS_P1;PMS_P2;Temp;Humidity;BMP_temperature;BMP_pressure;BME280_temperature;BME280_humidity;BME280_pressure;Samples;Min_cycle;Max_cycle;Signal;HPM_P1;HPM_P2
2023/10/10 00:01:44;;;;;;;3.33;1.60;;;16.90;99.90;;;17.23;nan;101139.53;4908547;29;20635;-67
2023/10/10 00:04:11;;;;;;;5.93;2.60;;;16.90;99.90;;;17.20;nan;101131.88;4912763;29;21692;-66
2023/10/10 00:06:40;;;;;;;3.60;1.90;;;16.80;99.90;;;17.20;nan;101123.97;4911665;29;20634;-65
2023/10/10 00:09:10;;;;;;;2.80;1.87;;;16.80;99.90;;;17.18;nan;101131.19;4910063;29;20670;-65
2023/10/10 00:11:45;;;;;;;2.07;1.63;;;16.80;99.90;;;17.14;nan;101128.00;4909763;29;20650;-67
2023/10/10 00:14:19;;;;;;;2.53;1.50;;;16.80;99.90;;;17.11;nan;101125.63;4913196;29;20677;-67
2023/10/10 00:16:55;;;;;;;2.90;1.57;;;16.80;99.90;;;17.08;nan;101132.03;4903447;29;20645;-67
2023/10/10 00:21:52;;;;;;;4.10;2.60;;;16.70;99.90;;;16.97;nan;101132.16;4913397;29;20707;-66
2023/10/10 00:24:21;;;;;;;2.77;1.97;;;16.70;99.90;;;16.92;nan;101141.47;4913686;29;20716;-66
2023/10/10 00:26:48;;;;;;;11.67;2.20;;;16.60;99.90;;;16.91;nan;101140.63;4914980;29;20634;-66
2023/10/10 00:29:18;;;;;;;3.10;2.67;;;16.60;99.90;;;16.92;nan;101138.84;4911546;29;20669;-66
2023/10/10 00:31:55;;;;;;;4.90;3.07;;;16.50;99.90;;;16.91;nan;101129.25;4925143;29;20643;-67
2023/10/10 00:34:33;;;;;;;4.40;2.50;;;16.60;99.90;;;16.92;nan;101126.50;4919973;29;20671;-67
2023/10/10 00:37:07;;;;;;;6.03;2.00;;;16.60;99.90;;;16.93;nan;101133.41;4929426;29;20626;-66
2023/10/10 00:39:36;;;;;;;9.40;3.03;;;16.60;99.90;;;16.94;nan;101129.81;4913761;29;20625;-67
2023/10/10 00:42:08;;;;;;;4.13;1.77;;;16.60;99.90;;;16.94;nan;101134.25;4908807;29;20701;-66
2023/10/10 00:44:39;;;;;;;2.47;2.20;;;16.60;99.90;;;16.92;nan;101130.91;4905917;29;20649;-66
2023/10/10 00:47:12;;;;;;;2.50;1.60;;;16.60;99.90;;;16.87;nan;101126.06;4910639;29;20633;-66
2023/10/10 00:49:44;;;;;;;1.73;1.40;;;16.60;99.90;;;16.85;nan;101122.72;4913544;29;20673;-66
2023/10/10 00:52:16;;;;;;;3.10;2.57;;;16.50;99.90;;;16.79;nan;101120.66;4911456;29;21442;-67
2023/10/10 00:54:45;;;;;;;2.50;1.80;;;16.50;99.90;;;16.71;nan;101117.03;4906760;29;20702;-66
2023/10/10 00:57:14;;;;;;;4.30;2.47;;;16.40;99.90;;;16.63;nan;101122.97;4910971;29;20681;-67
2023/10/10 00:59:45;;;;;;;2.90;2.70;;;16.30;99.90;;;16.61;nan;101121.47;4911687;29;20648;-67
2023/10/10 01:02:14;;;;;;;2.40;2.20;;;16.30;99.90;;;16.59;nan;101121.59;4904184;29;20642;-68
2023/10/10 01:07:19;;;;;;;5.40;3.10;;;16.30;99.90;;;16.62;nan;101115.22;4921114;29;20697;-67
2023/10/10 01:09:57;;;;;;;2.90;2.60;;;16.20;99.90;;;16.62;nan;101117.88;4923879;29;20630;-67
2023/10/10 01:12:28;;;;;;;4.43;2.77;;;16.20;99.90;;;16.61;nan;101116.22;4912534;29;20636;-66
2023/10/10 01:14:57;;;;;;;4.77;2.90;;;16.30;99.90;;;16.62;nan;101116.06;4913391;29;20634;-66
2023/10/10 01:17:30;;;;;;;5.00;2.77;;;16.30;99.90;;;16.64;nan;101115.91;4912654;29;21302;-65
2023/10/10 01:20:10;;;;;;;4.30;3.10;;;16.30;99.90;;;16.64;nan;101111.50;4908826;29;20998;-67
2023/10/10 01:22:39;;;;;;;3.77;2.60;;;16.30;99.90;;;16.64;nan;101111.50;4908922;29;20728;-66
2023/10/10 01:27:56;;;;;;;3.30;2.80;;;16.30;99.90;;;16.59;nan;101115.53;4910183;29;20677;-66
2023/10/10 01:30:43;;;;;;;3.30;2.97;;;16.30;99.90;;;16.55;nan;101106.19;4904983;29;20642;-66
2023/10/10 01:33:22;;;;;;;5.40;3.37;;;16.20;99.90;;;16.50;nan;101104.00;4907969;29;20683;-65
2023/10/10 01:35:52;;;;;;;6.37;3.10;;;16.20;99.90;;;16.48;nan;101105.91;4901297;29;20689;-67
2023/10/10 01:38:45;;;;;;;2.70;2.50;;;16.20;99.90;;;16.50;nan;101108.44;4912571;29;21302;-66
2023/10/10 01:41:15;;;;;;;5.10;3.13;;;16.10;99.90;;;16.52;nan;101111.75;4915171;29;20633;-67
2023/10/10 01:43:53;;;;;;;5.87;2.83;;;16.20;99.90;;;16.54;nan;101109.81;4917092;29;20644;-67
2023/10/10 01:46:30;;;;;;;7.93;3.70;;;16.20;99.90;;;16.54;nan;101102.75;4918199;29;20633;-67
2023/10/10 01:48:57;;;;;;;5.50;3.17;;;16.20;99.90;;;16.56;nan;101100.81;4916563;29;20665;-67
2023/10/10 01:51:24;;;;;;;6.80;3.00;;;16.20;99.90;;;16.58;nan;101109.41;4915542;29;20652;-67
2023/10/10 01:53:55;;;;;;;3.40;2.80;;;16.20;99.90;;;16.60;nan;101107.47;4916184;29;20662;-67
2023/10/10 01:56:23;;;;;;;6.17;3.27;;;16.30;99.90;;;16.61;nan;101109.13;4913308;29;20722;-67
2023/10/10 01:58:53;;;;;;;4.10;3.27;;;16.30;99.90;;;16.63;nan;101103.72;4914930;29;21224;-67
2023/10/10 02:01:23;;;;;;;4.30;2.87;;;16.30;99.90;;;16.64;nan;101100.94;4914663;29;21232;-68
2023/10/10 02:03:53;;;;;;;6.80;3.30;;;16.30;99.90;;;16.66;nan;101098.16;4915479;29;20636;-68
2023/10/10 02:06:27;;;;;;;5.80;2.97;;;16.30;99.90;;;16.63;nan;101094.00;4917766;29;20681;-67
2023/10/10 02:09:40;;;;;;;3.77;2.77;;;16.30;99.90;;;16.63;nan;101104.53;4915038;29;20673;-68
2023/10/10 02:11:54;;;;;;;4.20;2.70;;;16.30;99.90;;;16.59;nan;101108.44;4909392;29;20658;-67
2023/10/10 02:14:25;;;;;;;6.60;3.50;;;16.20;99.90;;;16.58;nan;101096.25;4906401;29;20680;-66
2023/10/10 02:16:55;;;;;;;5.47;3.40;;;16.20;99.90;;;16.57;nan;101097.19;4910986;29;20649;-67
2023/10/10 02:19:33;;;;;;;4.07;3.27;;;16.20;99.90;;;16.54;nan;101096.66;4915745;29;20638;-68
2023/10/10 02:22:33;;;;;;;6.37;3.90;;;16.20;99.90;;;16.49;nan;101096.19;4915519;29;21107;-67
2023/10/10 02:28:05;;;;;;;3.20;2.67;;;16.10;99.90;;;16.43;nan;101097.56;4914306;29;20661;-65
2023/10/10 02:33:16;;;;;;;5.40;3.07;;;16.10;99.90;;;16.33;nan;101103.78;4915821;29;20677;-66
2023/10/10 02:35:55;;;;;;;3.83;2.57;;;16.00;99.90;;;16.26;nan;101100.88;4915704;29;21458;-67
2023/10/10 02:38:34;;;;;;;4.77;2.70;;;16.00;99.90;;;16.22;nan;101091.56;4916738;29;20721;-66
2023/10/10 02:44:09;;;;;;;5.40;2.97;;;15.90;99.90;;;16.15;nan;101098.34;4915308;29;20637;-67
2023/10/10 02:46:39;;;;;;;5.63;3.20;;;15.80;99.90;;;16.08;nan;101097.19;4908012;29;20646;-66
2023/10/10 02:49:12;;;;;;;7.30;2.63;;;15.80;99.90;;;16.06;nan;101099.13;4928424;29;20666;-66
2023/10/10 02:51:42;;;;;;;4.13;2.80;;;15.70;99.90;;;16.04;nan;101090.53;4910711;29;20660;-65
2023/10/10 02:59:59;;;;;;;3.90;2.93;;;15.70;99.90;;;16.00;nan;101095.25;4915368;29;20642;-66
2023/10/10 03:02:40;;;;;;;3.50;2.83;;;15.70;99.90;;;15.99;nan;101095.41;4912102;29;20638;-67
2023/10/10 03:05:14;;;;;;;4.37;3.07;;;15.60;99.90;;;15.98;nan;101096.34;4906758;29;20625;-66
2023/10/10 03:07:44;;;;;;;5.60;3.40;;;15.60;99.90;;;15.99;nan;101092.75;4914709;29;21118;-66
2023/10/10 03:10:23;;;;;;;4.37;3.30;;;15.60;99.90;;;15.98;nan;101094.56;4914681;29;20640;-67
2023/10/10 03:13:05;;;;;;;4.20;3.20;;;15.60;99.90;;;15.98;nan;101089.28;4915366;29;20725;-66
2023/10/10 03:15:33;;;;;;;4.77;2.97;;;15.60;99.90;;;15.97;nan;101090.25;4915287;29;21179;-67
2023/10/10 03:25:51;;;;;;;4.67;3.40;;;15.60;99.90;;;16.00;nan;101104.94;4909475;29;21013;-67
2023/10/10 03:28:20;;;;;;;5.13;3.10;;;15.70;99.90;;;15.99;nan;101098.03;4921571;29;20663;-67
2023/10/10 03:33:44;;;;;;;4.80;3.40;;;15.70;99.90;;;15.96;nan;101103.53;4915409;29;20666;-67
2023/10/10 05:23:34;;;;;;;4.77;3.80;;;15.00;99.90;;;15.31;nan;101098.66;4903614;29;21023;-67
2023/10/10 05:26:05;;;;;;;7.80;3.90;;;15.00;99.90;;;15.29;nan;101098.75;4908917;29;20653;-67
2023/10/10 05:28:32;;;;;;;6.07;4.10;;;15.00;99.90;;;15.26;nan;101096.41;4901712;29;20744;-67
2023/10/10 05:31:02;;;;;;;7.80;4.50;;;14.90;99.90;;;15.25;nan;101099.97;4905509;29;21341;-67
2023/10/10 05:33:30;;;;;;;6.07;3.60;;;14.90;99.90;;;15.25;nan;101099.13;4903594;29;20653;-68
2023/10/10 05:35:59;;;;;;;7.17;3.00;;;14.90;99.90;;;15.18;nan;101104.06;4922011;29;20649;-67
2023/10/10 05:38:26;;;;;;;5.03;3.13;;;14.90;99.90;;;15.16;nan;101103.38;4905984;29;21317;-66
2023/10/10 05:40:54;;;;;;;9.83;3.60;;;14.80;99.90;;;15.11;nan;101102.94;4911270;29;21223;-66
2023/10/10 05:43:33;;;;;;;4.07;3.23;;;14.80;99.90;;;15.07;nan;101098.91;4911667;29;20629;-66
2023/10/10 05:46:03;;;;;;;7.40;3.20;;;14.80;99.90;;;15.02;nan;101100.22;4910648;29;20646;-67
2023/10/10 05:48:32;;;;;;;4.53;3.03;;;14.70;99.90;;;15.02;nan;101110.72;4908357;29;20666;-64
2023/10/10 05:51:00;;;;;;;4.20;2.77;;;14.70;99.90;;;14.98;nan;101110.16;4895197;29;20668;-66
2023/10/10 05:53:32;;;;;;;6.80;2.37;;;14.70;99.90;;;14.98;nan;101110.16;4909797;29;20646;-66
2023/10/10 05:56:12;;;;;;;7.13;1.63;;;14.60;99.90;;;15.00;nan;101108.25;4905091;29;20677;-67
2023/10/10 05:58:44;;;;;;;12.80;4.00;;;14.70;99.90;;;15.04;nan;101108.81;4905600;29;21116;-67
2023/10/10 06:01:13;;;;;;;13.67;3.80;;;14.70;99.90;;;15.06;nan;101107.72;4905426;29;20661;-67
2023/10/10 06:03:47;;;;;;;6.47;3.33;;;14.80;99.90;;;15.10;nan;101113.59;4921346;29;20646;-66
2023/10/10 06:06:15;;;;;;;5.27;3.40;;;14.80;99.90;;;15.14;nan;101115.81;4907275;29;20642;-67
2023/10/10 06:08:43;;;;;;;7.77;4.47;;;14.80;99.90;;;15.22;nan;101123.06;4911080;29;20665;-67
2023/10/10 06:11:14;;;;;;;7.20;4.30;;;14.90;99.90;;;15.31;nan;101123.13;4912676;29;20638;-67
2023/10/10 06:13:43;;;;;;;4.10;3.23;;;15.00;99.90;;;15.41;nan;101123.19;4910643;29;20982;-67
2023/10/10 06:16:13;;;;;;;7.57;2.77;;;15.00;99.90;;;15.54;nan;101129.94;4913373;29;21152;-67
2023/10/10 06:18:46;;;;;;;7.50;3.30;;;15.10;99.90;;;15.58;nan;101132.31;4909502;29;20666;-68
2023/10/10 06:21:16;;;;;;;6.77;3.90;;;15.20;99.90;;;15.63;nan;101132.75;4904572;29;20646;-66
2023/10/10 06:23:44;;;;;;;13.93;4.00;;;15.30;99.90;;;15.67;nan;101128.91;4905428;29;20986;-68
2023/10/10 06:26:14;;;;;;;6.37;4.13;;;15.30;99.90;;;15.67;nan;101129.75;4905741;29;20732;-69
2023/10/10 06:28:48;;;;;;;5.30;3.47;;;15.30;99.90;;;15.76;nan;101123.69;4914326;29;21255;-68
2023/10/10 06:31:19;;;;;;;7.70;4.30;;;15.40;99.90;;;15.90;nan;101135.66;4912546;29;21402;-67
2023/10/10 06:33:50;;;;;;;12.87;4.20;;;15.50;99.90;;;16.00;nan;101129.47;4924303;29;20637;-68
2023/10/10 06:41:42;;;;;;;7.87;4.20;;;15.90;99.90;;;16.48;nan;101141.94;4906474;29;20642;-68
2023/10/10 06:44:17;;;;;;;5.37;3.70;;;16.10;99.90;;;16.62;nan;101145.06;4929301;29;20621;-68
2023/10/10 06:46:48;;;;;;;12.57;4.53;;;16.20;99.90;;;16.77;nan;101140.22;4916797;29;20704;-66
2023/10/10 06:49:15;;;;;;;5.30;3.37;;;16.40;99.90;;;16.94;nan;101156.19;4913085;29;20666;-67
2023/10/10 06:51:42;;;;;;;5.90;3.87;;;16.50;99.90;;;16.96;nan;101148.13;4927539;29;20652;-66
2023/10/10 06:54:34;;;;;;;6.63;3.83;;;16.60;99.90;;;17.03;nan;101152.72;4905553;29;20665;-67
2023/10/10 06:59:28;;;;;;;14.77;4.70;;;16.80;99.90;;;17.32;nan;101154.47;4909156;29;20644;-67
2023/10/10 07:01:59;;;;;;;6.97;3.30;;;16.90;99.90;;;17.47;nan;101153.91;4909126;29;20876;-67
2023/10/10 07:04:27;;;;;;;9.13;4.13;;;17.10;99.90;;;17.69;nan;101158.06;4906923;29;20642;-67
2023/10/10 07:07:00;;;;;;;10.63;3.67;;;17.30;99.90;;;17.92;nan;101148.81;4906982;29;20638;-66
2023/10/10 07:09:28;;;;;;;5.60;4.00;;;17.50;99.90;;;18.20;nan;101157.59;4905538;29;21030;-67
2023/10/10 07:11:56;;;;;;;8.37;3.53;;;17.80;99.90;;;18.42;nan;101154.56;4910233;29;20647;-66
2023/10/10 07:14:26;;;;;;;10.23;4.30;;;18.00;99.90;;;18.54;nan;101151.59;4905701;29;20684;-66
2023/10/10 07:16:59;;;;;;;5.50;3.63;;;18.20;99.90;;;18.65;nan;101147.91;4907394;29;20647;-65
2023/10/10 07:19:30;;;;;;;8.70;4.17;;;18.30;99.90;;;18.81;nan;101150.69;4904266;29;20649;-67
2023/10/10 07:21:59;;;;;;;5.50;3.30;;;18.50;99.90;;;19.01;nan;101146.09;4908594;29;20638;-67
2023/10/10 07:24:40;;;;;;;6.57;3.43;;;18.70;99.90;;;19.20;nan;101145.94;4908151;29;20649;-67
2023/10/10 07:27:12;;;;;;;7.13;3.30;;;18.90;99.90;;;19.54;nan;101156.63;4908577;29;20656;-67
2023/10/10 07:32:18;;;;;;;6.30;3.87;;;19.70;99.90;;;20.36;nan;101149.78;4905568;29;20634;-67
2023/10/10 07:34:52;;;;;;;8.37;4.20;;;20.10;99.90;;;20.81;nan;101155.53;4913744;29;20675;-67
2023/10/10 07:37:19;;;;;;;5.30;4.10;;;20.50;99.90;;;21.12;nan;101157.59;4912560;29;20641;-67
2023/10/10 07:39:55;;;;;;;7.90;3.53;;;20.90;99.90;;;21.34;nan;101149.78;4909723;29;21028;-68
2023/10/10 07:42:27;;;;;;;4.10;3.33;;;21.10;99.90;;;21.53;nan;101165.34;4914379;29;21218;-67
2023/10/10 07:44:56;;;;;;;7.97;3.80;;;21.30;99.90;;;21.71;nan;101159.03;4917958;29;20637;-67
2023/10/10 07:47:27;;;;;;;7.53;3.73;;;21.60;99.90;;;21.98;nan;101163.94;4915870;29;20677;-68
2023/10/10 07:49:56;;;;;;;7.17;3.13;;;21.80;99.90;;;22.17;nan;101159.06;4916035;29;20741;-68
2023/10/10 07:52:23;;;;;;;7.97;3.70;;;22.00;99.90;;;22.37;nan;101156.81;4912676;29;20649;-67
2023/10/10 07:55:02;;;;;;;5.90;3.73;;;22.20;99.90;;;22.49;nan;101155.44;4911375;29;20674;-67
2023/10/10 07:57:37;;;;;;;7.67;3.27;;;22.30;99.90;;;22.79;nan;101154.63;4910322;29;20657;-66
2023/10/10 08:00:16;;;;;;;8.23;3.70;;;22.60;99.90;;;23.30;nan;101160.22;4929255;29;20637;-67
2023/10/10 08:02:49;;;;;;;7.50;3.63;;;23.00;99.90;;;23.66;nan;101161.25;4913399;29;20645;-68
2023/10/10 08:05:19;;;;;;;8.43;3.37;;;23.30;99.90;;;23.95;nan;101165.75;4911621;29;20626;-68
2023/10/10 08:07:47;;;;;;;4.57;4.03;;;23.60;99.90;;;24.27;nan;101163.56;4915388;29;21223;-68
2023/10/10 08:10:29;;;;;;;9.60;4.27;;;24.00;99.90;;;24.42;nan;101153.69;4905937;29;20749;-69
2023/10/10 08:12:57;;;;;;;13.33;4.07;;;24.10;99.90;;;24.57;nan;101151.00;4899587;29;21275;-67
2023/10/10 08:15:28;;;;;;;10.87;4.20;;;24.20;99.90;;;24.88;nan;101148.88;4914944;29;20666;-69
2023/10/10 08:17:58;;;;;;;6.47;4.10;;;24.60;99.90;;;25.32;nan;101151.34;4910033;29;20673;-68
2023/10/10 08:23:11;;;;;;;8.30;4.20;;;25.50;99.60;;;26.23;nan;101144.94;4913626;29;20634;-69
2023/10/10 08:25:37;;;;;;;4.70;2.87;;;26.10;98.90;;;26.90;nan;101153.81;4910810;29;20649;-68
2023/10/10 08:28:05;;;;;;;12.53;4.23;;;26.80;97.70;;;27.00;nan;101154.25;4911701;29;20686;-68
2023/10/10 08:30:33;;;;;;;7.77;5.00;;;27.00;96.40;;;27.52;nan;101154.28;4913294;29;20637;-69
2023/10/10 08:33:01;;;;;;;8.57;4.10;;;27.40;95.30;;;28.18;nan;101160.31;4906390;29;20646;-69
2023/10/10 08:35:38;;;;;;;7.90;4.37;;;28.00;94.10;;;28.67;nan;101162.38;4912394;29;20713;-69
2023/10/10 08:38:06;;;;;;;8.23;3.77;;;28.50;93.00;;;28.58;nan;101160.97;4911484;29;20673;-69
2023/10/10 08:40:35;;;;;;;10.40;4.53;;;28.60;91.70;;;28.62;nan;101156.03;4897336;29;20721;-68
2023/10/10 08:43:03;;;;;;;5.50;4.17;;;28.50;91.60;;;28.81;nan;101155.09;4907783;29;20652;-69
2023/10/10 08:45:39;;;;;;;9.30;3.87;;;28.60;91.20;;;28.85;nan;101158.97;4912740;29;20633;-69
2023/10/10 08:48:12;;;;;;;7.03;4.10;;;28.70;90.90;;;28.73;nan;101158.84;4913234;29;21317;-69
2023/10/10 08:50:41;;;;;;;12.83;5.40;;;28.70;90.10;;;28.62;nan;101161.41;4925036;29;20653;-68
2023/10/10 08:53:13;;;;;;;11.47;4.20;;;28.70;88.80;;;28.37;nan;101161.28;4903771;29;20640;-67
2023/10/10 08:55:42;;;;;;;7.07;4.57;;;28.40;89.60;;;28.49;nan;101166.81;4910749;29;21454;-68
2023/10/10 08:58:10;;;;;;;7.60;4.40;;;28.40;89.80;;;28.75;nan;101162.13;4901954;29;20675;-69
2023/10/10 09:00:37;;;;;;;9.17;4.10;;;28.60;89.10;;;28.88;nan;101162.03;4910018;29;21195;-68
2023/10/10 09:03:07;;;;;;;8.97;3.93;;;28.70;88.50;;;29.04;nan;101160.69;4908840;29;21223;-69
2023/10/10 09:05:36;;;;;;;9.87;4.27;;;28.90;88.00;;;29.32;nan;101158.44;4913118;29;20669;-70
2023/10/10 09:08:14;;;;;;;7.93;3.90;;;29.10;87.30;;;29.83;nan;101167.09;4910051;29;20684;-68
2023/10/10 09:10:45;;;;;;;6.97;4.37;;;29.60;85.60;;;30.33;nan;101165.06;4905915;29;20634;-70
2023/10/10 09:13:13;;;;;;;7.50;4.20;;;30.10;83.30;;;30.59;nan;101164.72;4923550;29;22768;-68
2023/10/10 09:15:54;;;;;;;7.90;4.60;;;30.40;83.20;;;30.55;nan;101155.47;4912886;29;20666;-69
2023/10/10 09:18:23;;;;;;;5.87;3.60;;;30.40;80.80;;;30.61;nan;101157.22;4909743;29;21401;-68
2023/10/10 09:20:51;;;;;;;8.00;3.70;;;30.50;80.70;;;30.51;nan;101151.56;4907765;29;20674;-69
2023/10/10 09:23:28;;;;;;;4.90;3.77;;;30.40;79.50;;;30.36;nan;101156.53;4908645;29;20634;-69
2023/10/10 09:26:36;;;;;;;8.23;4.00;;;30.30;79.60;;;30.10;nan;101151.44;4912826;29;20655;-68
2023/10/10 09:29:00;;;;;;;6.87;3.90;;;30.00;79.90;;;29.89;nan;101157.28;4909159;29;21329;-69
2023/10/10 09:31:30;;;;;;;5.13;3.40;;;29.70;80.40;;;29.55;nan;101147.06;4911255;29;21211;-68
2023/10/10 09:34:03;;;;;;;5.33;3.67;;;29.40;80.70;;;29.05;nan;101149.72;4907974;29;21440;-68
2023/10/10 09:36:37;;;;;;;8.97;4.27;;;28.70;82.10;;;28.51;nan;101144.09;4905179;29;20676;-69
2023/10/10 09:39:09;;;;;;;7.47;3.67;;;28.20;82.90;;;27.86;nan;101150.50;4905502;29;20679;-68
2023/10/10 09:42:00;;;;;;;5.40;3.40;;;27.50;84.70;;;27.20;nan;101152.41;4909602;29;21065;-67
2023/10/10 09:47:43;;;;;;;7.47;4.00;;;26.30;87.50;;;26.14;nan;101144.28;4904061;29;20668;-68
2023/10/10 09:52:55;;;;;;;10.20;3.67;;;24.90;90.80;;;24.76;nan;101144.22;4924513;29;20645;-69
2023/10/10 10:06:34;;;;;;;3.30;2.67;;;23.20;94.60;;;23.43;nan;101141.81;4915131;29;20696;-69
2023/10/10 10:09:31;;;;;;;5.13;3.10;;;23.10;95.30;;;23.26;nan;101142.94;4914418;29;20676;-69
2023/10/10 10:12:41;;;;;;;6.80;3.77;;;22.90;95.90;;;23.17;nan;101138.72;4914122;29;21030;-69
2023/10/10 10:15:48;;;;;;;4.27;3.00;;;22.70;96.30;;;23.19;nan;101137.53;4915883;29;20676;-69
2023/10/10 10:18:28;;;;;;;4.00;3.37;;;22.70;96.60;;;23.41;nan;101135.84;4910158;29;20673;-68
2023/10/10 10:23:45;;;;;;;9.50;4.10;;;23.40;95.60;;;24.36;nan;101133.09;4915191;29;20645;-68
2023/10/10 10:26:31;;;;;;;9.87;4.27;;;24.00;93.90;;;24.73;nan;101134.72;4915787;29;20715;-69
2023/10/10 10:29:15;;;;;;;4.97;2.40;;;24.30;92.90;;;24.67;nan;101131.00;4911647;29;20669;-68
2023/10/10 10:31:52;;;;;;;4.50;3.40;;;24.20;92.40;;;24.34;nan;101124.44;4915725;29;20700;-69
2023/10/10 10:34:31;;;;;;;6.73;3.00;;;23.90;92.90;;;23.98;nan;101126.22;4911065;29;20752;-69
2023/10/10 10:37:20;;;;;;;6.47;3.10;;;23.50;93.60;;;23.64;nan;101125.94;4915747;29;21273;-67
2023/10/10 10:42:46;;;;;;;6.70;3.57;;;22.90;94.80;;;23.24;nan;101115.66;4916263;29;20625;-68
2023/10/10 10:46:11;;;;;;;4.27;2.50;;;22.70;95.30;;;23.02;nan;101120.84;4915507;29;21011;-68
2023/10/10 10:48:47;;;;;;;5.00;2.63;;;22.60;95.50;;;22.87;nan;101113.84;4914359;29;20740;-68
2023/10/10 10:51:41;;;;;;;4.70;2.93;;;22.40;96.10;;;22.77;nan;101115.88;4914624;29;20637;-67
2023/10/10 10:54:09;;;;;;;5.87;2.70;;;22.30;96.40;;;22.60;nan;101109.84;4911810;29;20754;-68
2023/10/10 10:59:19;;;;;;;3.00;2.43;;;22.00;96.60;;;22.46;nan;101105.28;4913526;29;20673;-68
2023/10/10 11:01:57;;;;;;;3.17;2.10;;;22.00;96.90;;;22.34;nan;101109.31;4914183;29;20642;-68
2023/10/10 11:04:47;;;;;;;2.83;2.50;;;21.90;97.40;;;22.37;nan;101106.31;4913687;29;20645;-67
2023/10/10 11:07:27;;;;;;;4.97;2.33;;;21.80;97.80;;;22.42;nan;101103.13;4913447;29;20633;-68
2023/10/10 11:10:06;;;;;;;6.73;2.90;;;21.80;98.30;;;22.47;nan;101100.78;4913131;29;20661;-67
2023/10/10 11:12:36;;;;;;;4.10;2.33;;;21.90;98.00;;;22.43;nan;101102.94;4914986;29;21211;-69
2023/10/10 11:15:10;;;;;;;3.00;2.60;;;21.90;98.10;;;22.48;nan;101091.78;4925662;29;20736;-69
2023/10/10 11:17:42;;;;;;;3.40;2.20;;;21.90;98.10;;;22.52;nan;101093.91;4910975;29;21333;-69
2023/10/10 11:20:26;;;;;;;2.97;2.37;;;21.90;97.90;;;22.59;nan;101083.44;4914133;29;20648;-69
2023/10/10 11:23:06;;;;;;;4.43;2.63;;;22.00;98.00;;;22.60;nan;101085.09;4913213;29;20673;-69
2023/10/10 11:25:45;;;;;;;5.30;2.70;;;22.00;97.70;;;22.62;nan;101083.91;4915272;29;20648;-69
2023/10/10 11:28:23;;;;;;;4.10;2.80;;;22.00;97.50;;;22.66;nan;101077.22;4908699;29;20658;-68
2023/10/10 11:30:53;;;;;;;3.07;1.93;;;22.10;97.60;;;22.76;nan;101077.84;4920993;29;20649;-69
2023/10/10 11:36:29;;;;;;;4.10;2.70;;;22.30;97.60;;;22.94;nan;101077.50;4904379;29;20681;-68
2023/10/10 11:39:17;;;;;;;3.17;2.50;;;22.30;97.60;;;22.92;nan;101067.03;4912934;29;20664;-69
2023/10/10 11:41:45;;;;;;;4.67;2.13;;;22.40;97.60;;;22.97;nan;101069.16;4903608;29;20643;-69
2023/10/10 11:44:19;;;;;;;8.97;3.43;;;22.40;97.60;;;23.01;nan;101070.47;4911401;29;21298;-68
2023/10/10 11:46:47;;;;;;;3.93;2.77;;;22.40;97.60;;;23.08;nan;101060.75;4912373;29;20712;-67
2023/10/10 11:49:18;;;;;;;4.83;2.30;;;22.50;97.70;;;23.14;nan;101060.88;4912583;29;20677;-70
2023/10/10 11:51:46;;;;;;;5.10;2.93;;;22.60;97.80;;;23.18;nan;101066.63;4913068;29;20633;-69
2023/10/10 11:54:13;;;;;;;6.90;2.70;;;22.60;97.90;;;23.24;nan;101059.75;4911739;29;20669;-69
2023/10/10 11:56:41;;;;;;;2.10;1.90;;;22.70;97.40;;;23.28;nan;101063.69;4912514;29;20701;-68
2023/10/10 11:59:13;;;;;;;5.73;2.93;;;22.70;97.30;;;23.31;nan;101050.88;4913734;29;20666;-68
2023/10/10 12:02:07;;;;;;;3.50;2.40;;;22.70;97.40;;;23.37;nan;101052.00;4914082;29;21179;-68
2023/10/10 12:04:36;;;;;;;4.23;2.30;;;22.70;97.50;;;23.42;nan;101049.63;4911901;29;20623;-67
2023/10/10 12:07:05;;;;;;;7.33;3.13;;;22.80;97.50;;;23.42;nan;101044.28;4914705;29;20644;-68
2023/10/10 12:09:33;;;;;;;2.93;2.40;;;22.80;97.10;;;23.49;nan;101050.56;4911650;29;20649;-68
2023/10/10 12:12:04;;;;;;;4.00;2.30;;;22.90;97.60;;;23.54;nan;101042.81;4904830;29;20647;-68
2023/10/10 12:14:32;;;;;;;6.30;3.07;;;23.00;98.00;;;23.57;nan;101042.47;4909943;29;20637;-69
2023/10/10 12:17:05;;;;;;;6.00;3.17;;;23.00;98.30;;;23.62;nan;101040.88;4912152;29;20678;-66
2023/10/10 12:19:36;;;;;;;5.60;3.73;;;23.00;98.30;;;23.66;nan;101036.03;4906728;29;21397;-66
2023/10/10 12:22:10;;;;;;;11.97;3.50;;;23.10;98.30;;;23.71;nan;101030.97;4910668;29;21200;-67
2023/10/10 12:24:41;;;;;;;7.47;4.23;;;23.20;98.40;;;23.79;nan;101033.50;4925947;29;20692;-66
2023/10/10 12:27:09;;;;;;;3.60;2.67;;;23.20;98.00;;;23.80;nan;101033.34;4909042;29;21059;-67
2023/10/10 12:29:40;;;;;;;4.37;2.73;;;23.30;97.40;;;23.77;nan;101028.38;4909104;29;21235;-67
2023/10/10 12:32:18;;;;;;;4.20;2.53;;;23.20;96.80;;;23.75;nan;101017.06;4927103;29;20630;-66
2023/10/10 12:34:45;;;;;;;5.03;2.73;;;23.20;96.70;;;23.74;nan;101023.44;4895343;29;21048;-68
2023/10/10 12:37:15;;;;;;;5.53;2.37;;;23.20;96.50;;;23.78;nan;101010.56;4905446;29;20798;-68
2023/10/10 12:39:44;;;;;;;6.33;2.87;;;23.20;96.60;;;23.83;nan;101013.47;4919962;29;20631;-67
2023/10/10 12:42:11;;;;;;;3.00;2.60;;;23.20;96.60;;;23.88;nan;101011.09;4904894;29;20750;-67
2023/10/10 12:44:38;;;;;;;3.90;2.43;;;23.30;96.40;;;23.89;nan;101008.22;4907847;29;20733;-67
2023/10/10 12:47:08;;;;;;;4.40;2.73;;;23.30;96.20;;;23.90;nan;101014.38;4905396;29;20646;-67
2023/10/10 12:49:44;;;;;;;5.93;3.03;;;23.30;96.40;;;23.95;nan;101013.81;4903563;29;20680;-68
2023/10/10 12:52:12;;;;;;;2.40;2.20;;;23.30;96.30;;;23.99;nan;101010.59;4910296;29;20629;-67
2023/10/10 12:54:41;;;;;;;4.27;2.50;;;23.40;96.40;;;24.04;nan;100997.56;4902538;29;20674;-68
2023/10/10 12:57:13;;;;;;;5.20;2.50;;;23.40;96.60;;;24.10;nan;101002.16;4925993;29;20670;-67
2023/10/10 12:59:46;;;;;;;6.53;3.23;;;23.50;96.50;;;24.13;nan;100996.41;4907485;29;20656;-67
2023/10/10 13:02:15;;;;;;;6.07;2.37;;;23.50;96.20;;;24.17;nan;100994.22;4926205;29;20705;-68
2023/10/10 13:04:46;;;;;;;5.77;2.80;;;23.50;96.00;;;24.19;nan;100992.19;4901286;29;20634;-67
2023/10/10 13:07:16;;;;;;;5.30;3.23;;;23.60;95.90;;;24.23;nan;100988.97;4924874;29;20715;-66
2023/10/10 13:09:46;;;;;;;4.03;2.63;;;23.60;95.60;;;24.22;nan;100992.63;4914258;29;20641;-67
2023/10/10 13:12:27;;;;;;;2.50;1.97;;;23.60;95.50;;;24.20;nan;100994.66;4911910;29;20636;-67
2023/10/10 13:15:16;;;;;;;4.20;2.50;;;23.60;95.60;;;24.10;nan;100988.81;4902414;29;21208;-67
2023/10/10 13:17:50;;;;;;;3.80;2.83;;;23.50;95.70;;;24.10;nan;100983.50;4902102;29;20683;-67
2023/10/10 13:20:18;;;;;;;4.27;2.63;;;23.50;95.70;;;24.07;nan;100989.19;4905439;29;20660;-67
2023/10/10 13:22:50;;;;;;;3.50;2.50;;;23.50;95.70;;;24.05;nan;100988.56;4907136;29;20992;-67
2023/10/10 13:25:19;;;;;;;4.07;2.50;;;23.50;95.90;;;24.02;nan;100983.59;4904198;29;20626;-69
2023/10/10 13:27:46;;;;;;;5.90;3.83;;;23.40;96.00;;;23.99;nan;100981.28;4919653;29;20658;-68
2023/10/10 13:30:13;;;;;;;3.63;2.83;;;23.40;96.00;;;23.98;nan;100981.47;4927236;29;20626;-68
2023/10/10 13:32:41;;;;;;;5.33;3.50;;;23.40;96.00;;;23.94;nan;100964.22;4907158;29;20639;-67
2023/10/10 13:35:09;;;;;;;3.13;2.03;;;23.30;96.00;;;23.92;nan;100975.88;4902832;29;20709;-67
2023/10/10 13:37:41;;;;;;;5.33;3.07;;;23.30;96.40;;;23.92;nan;100967.06;4905922;29;20682;-67
2023/10/10 13:40:20;;;;;;;6.10;2.57;;;23.40;96.30;;;23.79;nan;100964.22;4913440;29;20709;-67
2023/10/10 13:42:47;;;;;;;4.60;3.20;;;23.20;96.50;;;23.76;nan;100970.78;4911680;29;20637;-67
2023/10/10 13:45:19;;;;;;;13.30;7.43;;;23.20;96.40;;;23.77;nan;100964.44;4907211;29;21195;-67
2023/10/10 13:47:48;;;;;;;6.50;3.40;;;23.20;96.40;;;23.80;nan;100960.56;4915937;29;20677;-67
2023/10/10 13:50:40;;;;;;;7.07;2.20;;;23.20;96.60;;;23.77;nan;100955.59;4911317;29;20660;-67
2023/10/10 13:53:13;;;;;;;5.60;2.93;;;23.10;96.80;;;23.75;nan;100960.28;4923974;29;20629;-65